Time;durP1;ratioP1;P1;durP2;ratioP2;P2;SDS_P1;SDS_P2;PMS_P1;PMS_P2;Temp;Humidity;BMP_temperature;BMP_pressure;BME280_temperature;BME280_humidity;BME280_pressure;Samples;Min_cycle;Max_cycle;Signal;HPM_P1;HPM_P2
2023/03/11 00:02:11;;;;;;;5.18;3.13;;;;;;;9.34;63.47;95915.81;4971608;28;20102;-76
2023/03/11 00:04:37;;;;;;;4.97;2.70;;;;;;;9.28;64.34;95909.00;4978757;28;20068;-77
2023/03/11 00:07:06;;;;;;;4.32;2.33;;;;;;;9.26;63.96;95920.31;4979372;28;20069;-76
2023/03/11 00:09:32;;;;;;;4.05;1.95;;;;;;;9.17;63.90;95917.72;4970409;28;20050;-76
2023/03/11 00:11:58;;;;;;;3.13;1.77;;;;;;;9.11;63.81;95921.06;4970386;28;20039;-77
2023/03/11 00:14:23;;;;;;;3.08;1.70;;;;;;;9.07;64.02;95916.28;4970846;28;20053;-76
2023/03/11 00:16:49;;;;;;;4.95;1.70;;;;;;;9.03;64.32;95917.34;4970760;28;20034;-77
2023/03/11 00:19:14;;;;;;;3.15;1.30;;;;;;;9.01;63.49;95922.38;4972143;28;20034;-77
2023/03/11 00:21:39;;;;;;;2.25;1.17;;;;;;;8.97;63.71;95913.28;4970282;28;20502;-78
2023/03/11 00:24:05;;;;;;;2.45;1.38;;;;;;;8.96;63.30;95915.22;4970736;28;20069;-77
2023/03/11 00:26:30;;;;;;;2.70;1.17;;;;;;;8.94;63.33;95910.09;4970329;28;20050;-77
2023/03/11 00:28:56;;;;;;;2.22;1.30;;;;;;;8.94;62.60;95910.09;4972464;28;20738;-78
2023/03/11 00:31:21;;;;;;;1.77;1.08;;;;;;;8.93;63.51;95918.66;4970949;28;20026;-77
2023/03/11 00:33:47;;;;;;;1.48;1.00;;;;;;;8.91;63.19;95910.78;4971749;28;20491;-78
2023/03/11 00:36:23;;;;;;;1.98;0.90;;;;;;;8.88;63.12;95910.69;4970209;28;20106;-77
2023/03/11 00:38:49;;;;;;;2.22;0.95;;;;;;;8.88;63.15;95916.16;4971359;28;20030;-77
2023/03/11 00:41:16;;;;;;;1.85;1.00;;;;;;;8.85;62.67;95919.59;4970274;28;20046;-80
2023/03/11 00:43:41;;;;;;;2.40;0.98;;;;;;;8.81;61.86;95910.50;4969843;28;20071;-79
2023/03/11 00:46:08;;;;;;;1.88;1.00;;;;;;;8.78;62.79;95914.69;4971084;28;20027;-80
2023/03/11 00:48:33;;;;;;;2.35;0.85;;;;;;;8.77;62.30;95913.09;4971164;28;20031;-80
2023/03/11 00:50:59;;;;;;;1.70;0.80;;;;;;;8.75;62.10;95926.34;4980948;28;20101;-80
2023/03/11 00:53:24;;;;;;;1.77;0.82;;;;;;;8.71;61.53;95918.03;4990792;28;20058;-80
2023/03/11 00:55:49;;;;;;;3.80;1.60;;;;;;;8.71;60.79;95925.44;4976410;28;20029;-77
2023/03/11 00:58:15;;;;;;;2.40;0.90;;;;;;;8.70;61.15;95921.91;4971464;28;20023;-77
2023/03/11 01:00:41;;;;;;;9.32;3.28;;;;;;;8.66;60.89;95934.66;4971548;28;20102;-82
2023/03/11 01:03:06;;;;;;;3.50;2.00;;;;;;;8.64;60.97;95934.22;4971814;28;20034;-88
2023/03/11 01:05:33;;;;;;;10.15;3.60;;;;;;;8.63;61.17;95946.28;4974785;28;20031;-80
2023/03/11 01:08:00;;;;;;;14.07;5.25;;;;;;;8.61;61.33;95923.97;4975016;28;20113;-81
2023/03/11 01:10:26;;;;;;;7.53;2.70;;;;;;;8.60;61.18;95930.59;4974952;28;20023;-79
2023/03/11 01:12:52;;;;;;;8.18;2.20;;;;;;;8.59;61.23;95927.06;4972950;28;20437;-83
2023/03/11 01:15:37;;;;;;;5.13;1.60;;;;;;;8.58;61.51;95928.22;4973653;28;20113;-83
2023/03/11 01:18:04;;;;;;;5.25;1.75;;;;;;;8.58;60.73;95936.41;4974042;28;20023;-83
2023/03/11 01:20:30;;;;;;;4.07;1.45;;;;;;;8.54;60.79;95938.22;4972542;28;20457;-83
2023/03/11 01:22:55;;;;;;;4.43;1.20;;;;;;;8.54;60.96;95932.75;4973786;28;20042;-83
2023/03/11 01:25:23;;;;;;;3.90;1.40;;;;;;;8.54;61.00;95926.53;4973656;28;20043;-83
2023/03/11 01:27:48;;;;;;;2.75;1.25;;;;;;;8.51;60.29;95917.06;4973543;28;20109;-84
2023/03/11 01:30:20;;;;;;;2.50;1.13;;;;;;;8.51;60.31;95924.47;4973814;28;20138;-83
2023/03/11 01:32:45;;;;;;;3.55;1.63;;;;;;;8.51;60.29;95922.53;4973922;28;20058;-83
2023/03/11 01:35:13;;;;;;;2.60;1.20;;;;;;;8.52;60.60;95915.16;4973324;28;20058;-83
2023/03/11 01:37:38;;;;;;;1.70;1.10;;;;;;;8.53;60.69;95914.78;4972972;28;20051;-83
2023/03/11 01:40:06;;;;;;;1.63;0.95;;;;;;;8.55;59.96;95909.78;4973643;28;20114;-83
2023/03/11 01:42:31;;;;;;;2.42;1.10;;;;;;;8.55;60.39;95912.50;4973164;28;20038;-84
2023/03/11 01:44:57;;;;;;;3.75;2.03;;;;;;;8.56;60.48;95914.09;4973413;28;20446;-83
2023/03/11 01:47:37;;;;;;;2.28;1.80;;;;;;;8.55;60.53;95911.72;4974009;28;20025;-83
2023/03/11 01:50:05;;;;;;;2.42;1.70;;;;;;;8.54;61.56;95929.25;4975105;28;20547;-84
2023/03/11 01:52:31;;;;;;;2.28;1.85;;;;;;;8.50;61.30;95920.94;4974340;28;20023;-83
2023/03/11 01:54:56;;;;;;;3.80;2.38;;;;;;;8.51;61.84;95913.56;4976113;28;20052;-83
2023/03/11 01:57:22;;;;;;;2.75;1.98;;;;;;;8.44;61.24;95928.56;4976646;28;20049;-84
2023/03/11 01:59:55;;;;;;;3.15;2.28;;;;;;;8.41;61.89;95917.50;4975763;28;20034;-83
2023/03/11 02:02:26;;;;;;;3.70;2.00;;;;;;;8.38;62.08;95919.00;4975514;28;20027;-84
2023/03/11 02:04:53;;;;;;;3.08;1.83;;;;;;;8.35;62.28;95923.19;4974583;28;20030;-83
2023/03/11 02:07:18;;;;;;;2.45;1.70;;;;;;;8.31;62.06;95907.84;4974894;28;20023;-83
2023/03/11 02:09:44;;;;;;;2.88;1.70;;;;;;;8.26;62.07;95910.81;4977628;28;20031;-83
2023/03/11 02:12:13;;;;;;;3.35;1.70;;;;;;;8.20;62.56;95915.72;4979614;28;20543;-84
2023/03/11 02:14:42;;;;;;;2.60;1.50;;;;;;;8.17;62.43;95913.69;4975256;28;20019;-84
2023/03/11 02:17:08;;;;;;;2.33;1.50;;;;;;;8.10;62.37;95910.72;4981042;28;20467;-84
2023/03/11 02:19:40;;;;;;;2.40;1.50;;;;;;;8.04;62.49;95908.22;4977630;28;20081;-84
2023/03/11 02:22:09;;;;;;;1.60;1.23;;;;;;;7.95;61.81;95934.84;4977565;28;20042;-84
2023/03/11 02:24:56;;;;;;;1.35;1.00;;;;;;;7.88;61.88;95916.31;4974924;28;20049;-85
2023/03/11 02:27:24;;;;;;;1.75;1.10;;;;;;;7.82;61.37;95905.97;4982029;28;20486;-84
2023/03/11 02:29:50;;;;;;;2.65;1.15;;;;;;;7.79;61.56;95923.03;4987132;28;20113;-84
2023/03/11 02:32:16;;;;;;;1.48;0.90;;;;;;;7.74;61.59;95918.59;4978050;28;20045;-84
2023/03/11 02:34:42;;;;;;;1.50;0.90;;;;;;;7.71;61.55;95925.50;4973601;28;20026;-84
2023/03/11 02:37:11;;;;;;;2.28;1.17;;;;;;;7.69;61.57;95927.78;4980314;28;20493;-84
2023/03/11 02:39:41;;;;;;;1.77;1.02;;;;;;;7.68;61.27;95928.94;4993924;28;20023;-84
2023/03/11 02:42:11;;;;;;;1.42;0.90;;;;;;;7.64;61.03;95936.19;4993739;28;20080;-83
2023/03/11 02:44:38;;;;;;;3.75;2.10;;;;;;;7.59;60.85;95937.22;4993749;28;20033;-84
2023/03/11 02:47:04;;;;;;;3.08;1.10;;;;;;;7.57;60.32;95941.41;4993364;28;20034;-83
2023/03/11 02:49:30;;;;;;;1.52;1.20;;;;;;;7.55;60.26;95938.22;4992284;28;20556;-84
2023/03/11 02:51:55;;;;;;;2.38;1.02;;;;;;;7.53;59.89;95935.06;4988225;28;20173;-83
2023/03/11 02:54:21;;;;;;;2.55;1.25;;;;;;;7.48;59.97;95929.81;4972191;28;20027;-84
2023/03/11 02:56:46;;;;;;;2.40;1.08;;;;;;;7.44;59.35;95930.50;4972425;28;20568;-83
2023/03/11 02:59:11;;;;;;;4.53;1.90;;;;;;;7.39;59.37;95927.97;4972426;28;20037;-83
2023/03/11 03:01:37;;;;;;;2.33;1.10;;;;;;;7.35;59.30;95929.78;4977645;28;20037;-84
2023/03/11 03:04:03;;;;;;;4.15;1.55;;;;;;;7.33;60.06;95931.28;4990985;28;20042;-84
2023/03/11 03:06:28;;;;;;;2.17;1.40;;;;;;;7.31;59.24;95920.69;4983472;28;20113;-84
2023/03/11 03:08:54;;;;;;;1.52;1.08;;;;;;;7.28;59.52;95926.81;4979371;28;20501;-83
2023/03/11 03:11:19;;;;;;;1.98;1.25;;;;;;;7.20;59.93;95917.59;4977212;28;20034;-83
2023/03/11 03:13:45;;;;;;;1.77;1.15;;;;;;;7.14;59.70;95921.66;4970569;28;20088;-84
2023/03/11 03:16:10;;;;;;;1.20;0.82;;;;;;;7.09;60.20;95919.16;4972248;28;20050;-83
2023/03/11 03:18:36;;;;;;;2.35;0.90;;;;;;;6.98;60.38;95922.28;4984902;28;20030;-84
2023/03/11 03:21:01;;;;;;;4.60;1.77;;;;;;;6.92;60.78;95929.09;4975633;28;20031;-83
2023/03/11 03:23:27;;;;;;;1.20;0.90;;;;;;;6.85;60.61;95921.44;4972104;28;20031;-84
2023/03/11 03:25:52;;;;;;;1.67;0.88;;;;;;;6.78;60.72;95923.13;4982307;28;20051;-83
2023/03/11 03:28:18;;;;;;;1.60;0.90;;;;;;;6.70;61.00;95931.03;4971994;28;20058;-84
2023/03/11 03:30:43;;;;;;;1.95;0.73;;;;;;;6.58;61.44;95930.97;4972430;28;20039;-83
2023/03/11 03:33:09;;;;;;;1.20;0.90;;;;;;;6.53;61.83;95929.25;4976694;28;20027;-86
2023/03/11 03:35:34;;;;;;;7.30;2.55;;;;;;;6.45;63.18;95935.53;4972891;28;20515;-84
2023/03/11 03:38:00;;;;;;;1.70;0.93;;;;;;;6.37;63.06;95945.38;4972496;28;20110;-85
2023/03/11 03:40:26;;;;;;;33.08;9.57;;;;;;;6.27;63.36;95939.53;4971879;28;20034;-84
2023/03/11 03:42:51;;;;;;;3.25;1.20;;;;;;;6.15;64.33;95948.38;4974109;28;20030;-83
2023/03/11 03:45:17;;;;;;;1.77;1.02;;;;;;;6.01;64.64;95949.44;4982459;28;20408;-83
2023/03/11 03:47:42;;;;;;;1.88;0.90;;;;;;;5.88;64.86;95945.81;4971616;28;20034;-83
2023/03/11 03:50:10;;;;;;;1.20;0.70;;;;;;;5.79;66.17;95955.91;4972733;28;20030;-83
2023/03/11 03:52:36;;;;;;;2.08;0.85;;;;;;;5.69;66.23;95959.00;4971618;28;20037;-83
2023/03/11 03:55:02;;;;;;;1.70;0.90;;;;;;;5.60;66.26;95957.09;4983000;28;20023;-82
2023/03/11 03:57:28;;;;;;;3.08;1.20;;;;;;;5.56;66.01;95958.88;4971126;28;20094;-83
2023/03/11 03:59:53;;;;;;;1.85;0.93;;;;;;;5.55;66.79;95959.19;4972021;28;20031;-82
2023/03/11 04:02:19;;;;;;;1.20;1.10;;;;;;;5.51;66.75;95964.47;4972155;28;20031;-83
2023/03/11 04:04:44;;;;;;;1.67;1.17;;;;;;;5.47;66.70;95958.91;4971966;28;20073;-82
2023/03/11 04:07:10;;;;;;;1.88;1.20;;;;;;;5.44;67.88;95959.53;4972097;28;20031;-83
2023/03/11 04:09:38;;;;;;;2.10;1.00;;;;;;;5.38;67.81;95954.63;4972669;28;20051;-83
2023/03/11 04:12:04;;;;;;;0.88;0.85;;;;;;;5.29;67.67;95952.72;4972324;28;20438;-83
2023/03/11 04:14:30;;;;;;;1.65;1.00;;;;;;;5.26;68.17;95941.69;4972288;28;20027;-82
2023/03/11 04:16:56;;;;;;;1.48;1.05;;;;;;;5.19;68.73;95953.88;4973138;28;20062;-83
2023/03/11 04:19:22;;;;;;;1.17;1.08;;;;;;;5.09;69.22;95942.53;4983518;28;20026;-82
2023/03/11 04:21:47;;;;;;;1.17;1.00;;;;;;;4.99;69.49;95943.66;4991475;28;20104;-82
2023/03/11 04:24:12;;;;;;;1.63;0.80;;;;;;;4.84;70.25;95942.25;4981059;28;20033;-82
2023/03/11 04:26:38;;;;;;;2.45;1.00;;;;;;;4.71;69.74;95952.16;4985423;28;20121;-82
2023/03/11 04:29:03;;;;;;;1.20;1.10;;;;;;;4.59;69.50;95955.50;4974157;28;20054;-83
2023/03/11 04:31:29;;;;;;;1.08;0.90;;;;;;;4.53;71.23;95949.41;4974396;28;20070;-82
2023/03/11 04:33:54;;;;;;;1.92;1.00;;;;;;;4.39;70.95;95944.16;4972922;28;20031;-83
2023/03/11 04:36:20;;;;;;;2.15;1.10;;;;;;;4.32;71.80;95949.25;4972090;28;20458;-83
2023/03/11 04:38:45;;;;;;;1.27;0.80;;;;;;;4.24;71.00;95945.41;4971916;28;20373;-83
2023/03/11 04:41:11;;;;;;;1.23;0.65;;;;;;;4.24;71.61;95952.75;4972042;28;20395;-83
2023/03/11 04:43:36;;;;;;;1.67;1.10;;;;;;;4.20;70.84;95960.72;4972008;28;20054;-83
2023/03/11 04:46:01;;;;;;;2.20;1.25;;;;;;;4.17;71.84;95959.44;4971359;28;20109;-85
2023/03/11 04:48:27;;;;;;;1.50;0.90;;;;;;;4.14;72.02;95964.69;4971711;28;20030;-83
2023/03/11 04:50:54;;;;;;;0.85;0.70;;;;;;;4.13;71.60;95968.53;4989370;28;20027;-84
2023/03/11 04:53:20;;;;;;;1.63;0.80;;;;;;;4.07;71.01;95967.09;4990623;28;20027;-84
2023/03/11 04:55:46;;;;;;;1.42;0.90;;;;;;;4.04;71.42;95970.44;4978671;28;20109;-83
2023/03/11 04:58:12;;;;;;;1.58;1.00;;;;;;;4.00;71.69;95978.38;4989389;28;20098;-84
2023/03/11 05:00:37;;;;;;;1.77;0.95;;;;;;;3.98;71.49;95989.56;4991172;28;20046;-83
2023/03/11 05:03:04;;;;;;;1.27;1.15;;;;;;;3.93;71.53;95995.13;4991344;28;20031;-83
2023/03/11 05:05:29;;;;;;;1.80;1.10;;;;;;;3.91;71.33;95997.34;4989618;28;20042;-83
2023/03/11 05:07:55;;;;;;;1.23;0.80;;;;;;;3.91;71.52;96012.81;4990896;28;20034;-82
2023/03/11 05:10:23;;;;;;;3.03;2.15;;;;;;;3.85;71.15;96012.16;4986945;28;20042;-82
2023/03/11 05:12:49;;;;;;;0.75;0.75;;;;;;;3.81;71.90;96020.13;4971462;28;20058;-83
2023/03/11 05:15:14;;;;;;;1.65;0.80;;;;;;;3.75;71.79;96026.78;4970975;28;20066;-82
2023/03/11 05:17:40;;;;;;;2.17;0.80;;;;;;;3.76;71.67;96024.88;4971283;28;20463;-82
2023/03/11 05:20:06;;;;;;;0.80;0.80;;;;;;;3.76;72.02;96031.09;4974125;28;20035;-83
2023/03/11 05:22:32;;;;;;;0.80;0.77;;;;;;;3.73;71.91;96029.78;4991003;28;20031;-82
2023/03/11 05:24:58;;;;;;;0.90;0.80;;;;;;;3.69;72.16;96019.91;4990253;28;20442;-82
2023/03/11 05:27:23;;;;;;;0.75;0.60;;;;;;;3.69;72.64;96028.03;4977733;28;20066;-83
2023/03/11 05:29:49;;;;;;;1.40;0.65;;;;;;;3.69;71.90;96030.75;4988911;28;20088;-83
2023/03/11 05:32:14;;;;;;;0.40;0.40;;;;;;;3.70;72.71;96032.34;4989533;28;20107;-83
2023/03/11 05:34:39;;;;;;;0.88;0.40;;;;;;;3.71;72.55;96042.88;4990538;28;20022;-83
2023/03/11 05:37:05;;;;;;;0.40;0.40;;;;;;;3.73;71.82;96056.13;4990214;28;20490;-83
2023/03/11 05:39:32;;;;;;;2.13;0.63;;;;;;;3.72;72.26;96059.94;4989327;28;20475;-83
2023/03/11 05:41:57;;;;;;;6.90;1.90;;;;;;;3.72;72.50;96073.50;4991039;28;20117;-83
2023/03/11 05:44:23;;;;;;;6.60;1.40;;;;;;;3.68;73.19;96075.22;4972664;28;20031;-83
2023/03/11 05:46:48;;;;;;;5.10;1.60;;;;;;;3.61;73.20;96080.28;4983654;28;20030;-83
2023/03/11 05:49:13;;;;;;;7.90;2.03;;;;;;;3.48;73.09;96085.44;4971514;28;20023;-83
2023/03/11 05:51:39;;;;;;;1.85;0.90;;;;;;;3.35;72.55;96083.63;4974560;28;20018;-82
2023/03/11 05:54:10;;;;;;;1.80;0.80;;;;;;;3.21;72.08;96086.41;4974494;28;20027;-83
2023/03/11 05:56:35;;;;;;;6.32;1.73;;;;;;;3.06;72.39;96115.44;4973091;28;20041;-84
2023/03/11 05:59:01;;;;;;;3.50;1.27;;;;;;;2.90;72.62;96104.13;4974452;28;20022;-83
2023/03/11 06:01:26;;;;;;;0.85;0.57;;;;;;;2.80;72.70;96120.59;4973355;28;20027;-83
2023/03/11 06:03:51;;;;;;;1.92;0.90;;;;;;;2.72;72.33;96113.19;4974458;28;20463;-84
2023/03/11 06:06:17;;;;;;;1.08;0.70;;;;;;;2.65;73.19;96116.31;4990864;28;20426;-84
2023/03/11 06:08:48;;;;;;;3.83;1.70;;;;;;;2.59;72.82;96134.56;4981636;28;20027;-83
2023/03/11 06:11:14;;;;;;;3.20;1.30;;;;;;;2.50;72.90;96137.16;4970944;28;20031;-83
2023/03/11 06:13:39;;;;;;;5.65;1.90;;;;;;;2.40;72.59;96141.97;4990087;28;20031;-82
2023/03/11 06:16:06;;;;;;;2.28;1.17;;;;;;;2.28;72.70;96145.97;4979227;28;20035;-84
2023/03/11 06:18:31;;;;;;;1.92;1.13;;;;;;;2.23;72.22;96151.50;4978164;28;20035;-81
2023/03/11 06:20:58;;;;;;;1.30;0.95;;;;;;;2.16;73.23;96161.88;4979861;28;20030;-84
2023/03/11 06:23:24;;;;;;;1.15;0.80;;;;;;;2.08;73.07;96158.78;4993198;28;20022;-83
2023/03/11 06:25:56;;;;;;;0.80;0.80;;;;;;;2.01;72.53;96162.97;4974086;28;20566;-83
2023/03/11 06:28:22;;;;;;;0.88;0.88;;;;;;;1.96;72.76;96169.25;4989421;28;20030;-84
2023/03/11 06:30:47;;;;;;;1.98;1.20;;;;;;;1.92;73.14;96181.75;4992412;28;20049;-84
2023/03/11 06:33:13;;;;;;;6.25;2.90;;;;;;;1.85;73.21;96178.63;4973681;28;20676;-83
2023/03/11 06:35:39;;;;;;;2.05;1.27;;;;;;;1.83;73.10;96186.25;4976454;28;20023;-84
2023/03/11 06:38:05;;;;;;;1.95;1.58;;;;;;;1.77;73.52;96178.22;4993002;28;20089;-85
2023/03/11 06:40:31;;;;;;;2.92;1.75;;;;;;;1.78;73.47;96187.13;4993368;28;20470;-83
2023/03/11 06:42:56;;;;;;;1.92;1.75;;;;;;;1.77;73.47;96186.34;4993082;28;20033;-83
2023/03/11 06:45:21;;;;;;;1.70;1.60;;;;;;;1.80;73.58;96186.84;4993493;28;20058;-84
2023/03/11 06:47:47;;;;;;;1.20;1.10;;;;;;;1.81;73.41;96199.25;4983544;28;20045;-84
2023/03/11 06:50:12;;;;;;;1.73;1.50;;;;;;;1.80;73.15;96197.66;4985059;28;20109;-84
2023/03/11 06:52:37;;;;;;;6.28;2.78;;;;;;;1.80;73.49;96198.44;4986990;28;20034;-84
2023/03/11 06:55:03;;;;;;;2.72;1.83;;;;;;;1.78;74.12;96206.84;4973382;28;20031;-83
2023/03/11 06:57:30;;;;;;;7.88;3.03;;;;;;;1.71;73.78;96197.50;4973930;28;20117;-83
2023/03/11 06:59:55;;;;;;;3.78;2.05;;;;;;;1.70;74.38;96209.41;4974335;28;20038;-83
2023/03/11 07:02:21;;;;;;;3.88;2.22;;;;;;;1.67;73.81;96208.09;4988950;28;20039;-84
2023/03/11 07:04:49;;;;;;;3.45;2.53;;;;;;;1.68;73.88;96203.50;4991667;28;20030;-83
2023/03/11 07:07:14;;;;;;;3.05;2.50;;;;;;;1.69;74.36;96219.41;4973719;28;20038;-83
2023/03/11 07:09:40;;;;;;;5.75;3.90;;;;;;;1.68;74.70;96233.22;4988130;28;20029;-83
2023/03/11 07:12:05;;;;;;;7.15;4.43;;;;;;;1.67;73.64;96231.59;4992957;28;20034;-82
2023/03/11 07:14:31;;;;;;;6.63;4.75;;;;;;;1.66;74.47;96236.22;4989130;28;20037;-83
2023/03/11 07:16:57;;;;;;;7.05;4.57;;;;;;;1.64;74.38;96233.78;4981527;28;20034;-83
2023/03/11 07:19:23;;;;;;;5.10;2.70;;;;;;;1.66;74.81;96235.41;4981340;28;20106;-83
2023/03/11 07:21:48;;;;;;;4.65;2.92;;;;;;;1.70;74.21;96242.66;4973613;28;20497;-83
2023/03/11 07:24:14;;;;;;;3.00;1.92;;;;;;;1.74;74.00;96240.16;4972720;28;20523;-82
2023/03/11 07:26:40;;;;;;;3.83;1.98;;;;;;;1.81;74.43;96242.50;4972871;28;20046;-83
2023/03/11 07:29:06;;;;;;;1.40;1.10;;;;;;;1.87;73.93;96246.69;4981218;28;20034;-83
2023/03/11 07:31:33;;;;;;;1.20;1.10;;;;;;;1.91;74.24;96258.53;4993472;28;20399;-83
2023/03/11 07:34:02;;;;;;;1.10;1.00;;;;;;;1.89;74.40;96249.91;4993459;28;20068;-83
2023/03/11 07:36:28;;;;;;;3.53;1.42;;;;;;;1.89;74.02;96256.16;4986276;28;20112;-84
2023/03/11 07:39:01;;;;;;;2.38;1.30;;;;;;;1.91;74.55;96253.94;4988552;28;20027;-84
2023/03/11 07:41:28;;;;;;;5.03;2.30;;;;;;;1.89;73.58;96260.72;4972542;28;20030;-85
2023/03/11 07:43:55;;;;;;;14.20;8.45;;;;;;;1.85;74.05;96275.94;4972668;28;20506;-84
2023/03/11 07:46:21;;;;;;;5.85;2.60;;;;;;;1.83;74.22;96287.03;4972123;28;20034;-84
2023/03/11 07:48:49;;;;;;;3.67;2.35;;;;;;;1.80;74.13;96282.22;4985894;28;20446;-84
2023/03/11 07:51:21;;;;;;;2.92;1.65;;;;;;;1.80;74.13;96279.53;4972697;28;20029;-84
2023/03/11 07:53:48;;;;;;;5.50;2.33;;;;;;;1.80;74.25;96286.84;4972148;28;20110;-85
2023/03/11 07:56:15;;;;;;;3.95;2.00;;;;;;;1.79;74.05;96304.94;4971966;28;20092;-84
2023/03/11 07:58:41;;;;;;;3.55;2.20;;;;;;;1.77;73.60;96296.31;4972285;28;20048;-84
2023/03/11 08:01:09;;;;;;;4.13;2.17;;;;;;;1.79;73.90;96310.34;4972394;28;20078;-85
2023/03/11 08:03:35;;;;;;;9.98;4.00;;;;;;;1.79;74.11;96307.66;4976864;28;20018;-84
2023/03/11 08:06:01;;;;;;;7.40;2.65;;;;;;;1.77;73.85;96316.06;4990983;28;20533;-84
2023/03/11 08:08:27;;;;;;;5.60;2.80;;;;;;;1.76;73.88;96310.94;4975969;28;20034;-84
2023/03/11 08:10:52;;;;;;;4.30;2.20;;;;;;;1.76;74.75;96310.94;4972084;28;20027;-84
2023/03/11 08:13:19;;;;;;;3.95;2.50;;;;;;;1.73;74.28;96319.63;4986282;28;20088;-84
2023/03/11 08:15:44;;;;;;;3.38;2.10;;;;;;;1.71;74.13;96340.72;4990658;28;20043;-84
2023/03/11 08:18:09;;;;;;;2.78;2.03;;;;;;;1.67;74.14;96320.78;4991049;28;20026;-84
2023/03/11 08:20:37;;;;;;;2.17;1.95;;;;;;;1.62;74.91;96327.88;4987616;28;20041;-84
2023/03/11 08:23:02;;;;;;;4.10;2.60;;;;;;;1.58;74.97;96331.44;4990931;28;20041;-84
2023/03/11 08:25:28;;;;;;;3.35;2.45;;;;;;;1.58;74.71;96328.75;4985440;28;20051;-85
2023/03/11 08:27:54;;;;;;;2.67;2.08;;;;;;;1.57;75.49;96338.75;4986824;28;20487;-85
2023/03/11 08:30:19;;;;;;;2.50;2.17;;;;;;;1.52;74.85;96343.41;4971724;28;20037;-85
2023/03/11 08:32:44;;;;;;;2.53;2.10;;;;;;;1.51;75.55;96349.91;4971742;28;20074;-85
2023/03/11 08:35:10;;;;;;;2.60;2.40;;;;;;;1.45;75.00;96349.97;4980451;28;20178;-85
2023/03/11 08:37:35;;;;;;;5.75;2.47;;;;;;;1.39;74.85;96353.84;4985619;28;20395;-85
2023/03/11 08:40:01;;;;;;;3.15;2.80;;;;;;;1.39;76.09;96361.13;4971725;28;20038;-85
2023/03/11 08:42:26;;;;;;;4.72;3.28;;;;;;;1.33;75.79;96368.50;4971783;28;20038;-84
2023/03/11 08:44:51;;;;;;;2.28;2.08;;;;;;;1.29;76.36;96367.44;4971115;28;20023;-84
2023/03/11 08:47:17;;;;;;;3.90;2.80;;;;;;;1.22;76.19;96358.88;4971470;28;20059;-85
2023/03/11 08:49:42;;;;;;;3.25;2.72;;;;;;;1.20;76.40;96370.00;4971466;28;20023;-85
2023/03/11 08:52:08;;;;;;;3.88;2.88;;;;;;;1.17;76.30;96370.56;4971812;28;20109;-85
2023/03/11 08:54:33;;;;;;;3.22;2.83;;;;;;;1.13;76.54;96380.31;4971386;28;20492;-83
2023/03/11 08:57:01;;;;;;;3.83;2.80;;;;;;;1.08;75.98;96388.47;4971347;28;20023;-85
2023/03/11 08:59:28;;;;;;;2.90;2.30;;;;;;;1.04;76.59;96390.91;4971862;28;20023;-84
2023/03/11 09:01:54;;;;;;;2.50;2.30;;;;;;;1.05;76.42;96392.53;4990706;28;20534;-82
2023/03/11 09:04:19;;;;;;;3.00;2.67;;;;;;;1.06;76.16;96385.25;4990759;28;20114;-84
2023/03/11 09:06:47;;;;;;;2.53;2.20;;;;;;;1.06;76.91;96399.53;4990823;28;20481;-84
2023/03/11 09:09:15;;;;;;;3.65;3.35;;;;;;;1.08;77.45;96397.34;4990722;28;20475;-84
2023/03/11 09:11:40;;;;;;;3.47;2.63;;;;;;;1.01;77.44;96405.00;4973657;28;20034;-84
2023/03/11 09:14:06;;;;;;;3.78;2.83;;;;;;;0.98;77.63;96419.88;4971773;28;20030;-84
2023/03/11 09:16:31;;;;;;;3.10;2.40;;;;;;;0.93;77.37;96419.13;4990893;28;20038;-85
2023/03/11 09:18:59;;;;;;;3.15;2.20;;;;;;;0.85;77.06;96417.81;4990649;28;20057;-85
2023/03/11 09:21:24;;;;;;;6.35;3.63;;;;;;;0.84;77.30;96417.03;4970993;28;20468;-85
2023/03/11 09:23:50;;;;;;;3.05;2.75;;;;;;;0.86;78.07;96425.66;4970402;28;20037;-85
2023/03/11 09:26:15;;;;;;;4.57;2.60;;;;;;;0.84;77.93;96438.63;4972748;28;20531;-85
2023/03/11 09:28:41;;;;;;;4.00;2.75;;;;;;;0.78;78.34;96415.47;4975294;28;20027;-85
2023/03/11 09:31:08;;;;;;;3.28;2.00;;;;;;;0.83;78.55;96428.91;4994564;28;20497;-85
2023/03/11 09:33:39;;;;;;;2.90;2.65;;;;;;;0.82;78.08;96440.78;4977842;28;20042;-85
2023/03/11 09:36:05;;;;;;;3.67;2.83;;;;;;;0.85;78.57;96451.03;4987176;28;20038;-84
2023/03/11 09:38:31;;;;;;;2.88;2.33;;;;;;;0.88;78.79;96453.16;4994204;28;20030;-84
2023/03/11 09:41:17;;;;;;;2.95;2.40;;;;;;;0.86;78.99;96457.22;4994150;28;20030;-84
2023/03/11 09:44:09;;;;;;;4.28;3.60;;;;;;;0.86;79.11;96463.44;4993029;28;20034;-84
2023/03/11 09:47:18;;;;;;;3.33;2.60;;;;;;;0.85;78.69;96461.00;4959232;28;20505;-84
2023/03/11 09:49:46;;;;;;;4.38;3.15;;;;;;;0.84;78.38;96470.19;4975618;28;20027;-84
2023/03/11 09:52:22;;;;;;;6.10;3.83;;;;;;;0.80;78.48;96480.75;4975708;28;20042;-84
2023/03/11 09:54:51;;;;;;;3.42;2.83;;;;;;;0.79;78.90;96492.63;4974523;28;20027;-84
2023/03/11 09:57:21;;;;;;;4.43;3.40;;;;;;;0.79;78.95;96486.44;4974877;28;20030;-83
2023/03/11 09:59:47;;;;;;;5.82;4.47;;;;;;;0.76;78.81;96503.97;4980279;28;20030;-84
2023/03/11 10:02:25;;;;;;;4.22;2.72;;;;;;;0.75;79.46;96502.38;4974974;28;20038;-83
2023/03/11 10:04:54;;;;;;;6.07;4.68;;;;;;;0.76;79.15;96520.16;4974637;28;20607;-84
2023/03/11 10:07:26;;;;;;;5.85;3.03;;;;;;;0.78;79.63;96509.13;4974370;28;20498;-83
2023/03/11 10:09:57;;;;;;;5.95;3.80;;;;;;;0.76;79.62;96520.16;4988983;28;20037;-85
2023/03/11 10:12:26;;;;;;;10.60;6.28;;;;;;;0.78;78.92;96550.38;4992888;28;20390;-84
2023/03/11 10:15:13;;;;;;;6.30;4.10;;;;;;;0.80;79.44;96532.03;4994559;28;20112;-84
2023/03/11 10:17:47;;;;;;;5.30;3.50;;;;;;;0.80;79.63;96542.03;4983260;28;20058;-86
2023/03/11 10:20:14;;;;;;;5.82;3.10;;;;;;;0.79;79.48;96543.13;4981542;28;20034;-82
2023/03/11 10:22:49;;;;;;;5.13;3.10;;;;;;;0.74;79.63;96543.94;4994281;28;20053;-83
2023/03/11 10:25:20;;;;;;;3.70;2.75;;;;;;;0.77;79.20;96559.56;4989356;28;20809;-83
2023/03/11 10:27:58;;;;;;;4.20;3.25;;;;;;;0.71;79.55;96558.81;4978236;28;20055;-84
2023/03/11 10:30:50;;;;;;;4.10;3.20;;;;;;;0.67;79.35;96581.19;4974235;28;20113;-82
2023/03/11 10:33:27;;;;;;;4.07;3.17;;;;;;;0.69;79.70;96570.94;4974816;28;20386;-83
2023/03/11 10:35:56;;;;;;;7.80;3.90;;;;;;;0.70;78.96;96586.03;4974868;28;20113;-83
2023/03/11 10:38:31;;;;;;;6.75;4.47;;;;;;;0.70;79.67;96592.25;4974119;28;20035;-83
2023/03/11 10:41:02;;;;;;;7.03;4.10;;;;;;;0.68;79.39;96599.84;4973763;28;20510;-82
2023/03/11 10:43:40;;;;;;;10.65;4.70;;;;;;;0.65;79.88;96605.78;4975187;28;20038;-83
2023/03/11 10:46:17;;;;;;;14.80;6.25;;;;;;;0.67;79.30;96624.38;4975501;28;20034;-82
2023/03/11 10:48:43;;;;;;;13.27;6.40;;;;;;;0.71;79.39;96638.94;4995084;28;20441;-81
2023/03/11 10:51:17;;;;;;;12.15;5.43;;;;;;;0.71;79.21;96633.53;4993118;28;20030;-81
2023/03/11 10:53:54;;;;;;;27.52;11.73;;;;;;;0.71;79.36;96653.25;4992482;28;20053;-80
2023/03/11 10:56:32;;;;;;;12.60;5.07;;;;;;;0.70;79.46;96646.22;4973274;28;20027;-81
2023/03/11 10:58:59;;;;;;;10.48;4.25;;;;;;;0.71;79.23;96653.25;4973616;28;20434;-81
2023/03/11 11:01:25;;;;;;;9.88;4.47;;;;;;;0.67;78.96;96646.78;4974156;28;20098;-80
2023/03/11 11:03:56;;;;;;;40.00;13.10;;;;;;;0.74;79.76;96662.66;4987990;28;20029;-80
2023/03/11 11:06:30;;;;;;;22.02;6.63;;;;;;;0.74;78.97;96671.59;4992918;28;20030;-80
2023/03/11 11:09:15;;;;;;;12.60;4.70;;;;;;;0.70;79.55;96672.38;4993066;28;20084;-79
2023/03/11 11:11:41;;;;;;;11.93;4.43;;;;;;;0.68;79.26;96677.25;4993327;28;20029;-79
2023/03/11 11:14:09;;;;;;;12.70;5.45;;;;;;;0.63;78.95;96696.97;4993030;28;20430;-79
2023/03/11 11:16:35;;;;;;;7.72;3.75;;;;;;;0.62;79.49;96698.06;4974139;28;20030;-79
2023/03/11 11:19:09;;;;;;;16.55;5.75;;;;;;;0.64;79.60;96708.56;4974020;28;20034;-78
2023/03/11 11:21:36;;;;;;;10.68;5.95;;;;;;;0.65;79.33;96696.69;4969508;28;20038;-78
2023/03/11 11:24:10;;;;;;;5.60;3.03;;;;;;;0.64;79.87;96730.16;4983278;28;20034;-79
2023/03/11 11:26:35;;;;;;;9.05;4.40;;;;;;;0.57;79.78;96717.78;4992283;28;20399;-79
2023/03/11 11:29:10;;;;;;;12.38;4.43;;;;;;;0.57;79.76;96720.47;4989745;28;20018;-79
2023/03/11 11:31:37;;;;;;;4.78;3.20;;;;;;;0.54;79.39;96725.59;4992666;28;20042;-76
2023/03/11 11:34:05;;;;;;;9.80;4.32;;;;;;;0.48;79.76;96741.00;4992672;28;20114;-78
2023/03/11 11:36:34;;;;;;;7.68;4.07;;;;;;;0.44;80.12;96738.03;4983838;28;20037;-79
2023/03/11 11:39:03;;;;;;;7.70;4.40;;;;;;;0.43;79.75;96747.19;4990358;28;20022;-78
2023/03/11 11:41:32;;;;;;;8.82;3.83;;;;;;;0.40;79.98;96755.84;4990067;28;20574;-78
2023/03/11 11:44:04;;;;;;;6.38;3.40;;;;;;;0.40;79.79;96779.31;4987613;28;20121;-79